Time;durP1;ratioP1;P1;durP2;ratioP2;P2;SDS_P1;SDS_P2;PMS_P1;PMS_P2;Temp;Humidity;BMP_temperature;BMP_pressure;BME280_temperature;BME280_humidity;BME280_pressure;Samples;Min_cycle;Max_cycle;Signal;HPM_P1;HPM_P2
2023/08/23 00:02:12;;;;;;;15.10;1.90;;;;;;;19.69;88.35;100491.13;109998;1280;23022;-61
2023/08/23 00:04:43;;;;;;;11.30;2.00;;;;;;;19.66;88.23;100488.77;110008;1280;23033;-61
2023/08/23 00:07:14;;;;;;;6.20;1.50;;;;;;;19.65;88.13;100490.36;109984;1269;22157;-61
2023/08/23 00:09:45;;;;;;;11.20;1.70;;;;;;;19.68;88.28;100486.11;110021;1279;22928;-60
2023/08/23 00:12:16;;;;;;;6.70;1.50;;;;;;;19.68;87.74;100489.20;110000;1276;22253;-61
2023/08/23 00:14:46;;;;;;;9.80;1.50;;;;;;;19.64;87.45;100493.67;110024;1276;22585;-61
2023/08/23 00:17:17;;;;;;;9.60;1.60;;;;;;;19.64;87.56;100489.09;109983;1280;22183;-62
2023/08/23 00:19:49;;;;;;;8.70;1.50;;;;;;;19.66;87.69;100490.71;109994;1273;22182;-62
2023/08/23 00:22:20;;;;;;;9.30;1.60;;;;;;;19.60;87.17;100490.80;109998;1280;23026;-61
2023/08/23 00:24:51;;;;;;;10.10;1.90;;;;;;;19.56;87.16;100498.08;110006;1280;22133;-61
2023/08/23 00:27:22;;;;;;;6.90;1.60;;;;;;;19.54;87.22;100497.58;110001;1280;22172;-61
2023/08/23 00:29:53;;;;;;;8.40;1.50;;;;;;;19.52;87.26;100501.99;110003;1279;22175;-61
2023/08/23 00:32:24;;;;;;;9.00;1.50;;;;;;;19.51;86.92;100508.80;110008;1280;22339;-61
2023/08/23 00:34:55;;;;;;;7.60;1.20;;;;;;;19.46;86.66;100514.57;110019;1280;22192;-61
2023/08/23 00:37:26;;;;;;;13.40;1.80;;;;;;;19.38;86.60;100514.11;109964;1275;22435;-61
2023/08/23 00:39:57;;;;;;;12.00;1.80;;;;;;;19.31;86.57;100516.77;109995;1276;22341;-61
2023/08/23 00:42:27;;;;;;;10.90;1.80;;;;;;;19.29;86.78;100511.30;109988;1274;22323;-61
2023/08/23 00:44:58;;;;;;;10.90;1.40;;;;;;;19.28;86.72;100509.45;109978;1280;22297;-61
2023/08/23 00:47:29;;;;;;;8.40;1.50;;;;;;;19.31;86.81;100499.69;109982;1279;22186;-61
2023/08/23 00:50:00;;;;;;;8.60;1.40;;;;;;;19.31;86.75;100497.22;109994;1280;22306;-61
2023/08/23 00:52:31;;;;;;;8.40;1.50;;;;;;;19.32;86.80;100495.98;109968;1280;22243;-60
2023/08/23 00:55:03;;;;;;;15.30;1.80;;;;;;;19.31;86.65;100494.39;109981;1276;22188;-60
2023/08/23 00:57:34;;;;;;;10.00;1.50;;;;;;;19.31;86.75;100497.73;110016;1273;22418;-60
2023/08/23 01:00:06;;;;;;;8.00;1.70;;;;;;;19.29;86.56;100504.91;109965;1280;22969;-61
2023/08/23 01:02:37;;;;;;;11.60;1.60;;;;;;;19.26;86.53;100507.23;109914;1272;22239;-61
2023/08/23 01:05:09;;;;;;;9.80;2.00;;;;;;;19.21;86.40;100516.75;109941;1276;22224;-62
2023/08/23 01:07:50;;;;;;;11.00;1.80;;;;;;;19.15;86.49;100522.13;109996;1277;22177;-63
2023/08/23 01:10:33;;;;;;;11.20;1.70;;;;;;;19.09;86.56;100526.97;109975;1276;23175;-62
2023/08/23 01:13:10;;;;;;;10.50;1.90;;;;;;;19.06;86.88;100529.77;109975;1274;22265;-62
2023/08/23 01:15:44;;;;;;;11.90;1.70;;;;;;;19.08;86.97;100526.16;109974;1273;22399;-62
2023/08/23 01:18:16;;;;;;;9.80;2.00;;;;;;;19.07;86.88;100510.94;109955;1273;23330;-61
2023/08/23 01:20:53;;;;;;;10.50;2.00;;;;;;;19.08;86.98;100510.41;109974;1273;22532;-62
2023/08/23 01:23:25;;;;;;;8.30;1.70;;;;;;;19.10;87.10;100506.34;109953;1274;22315;-62
2023/08/23 01:25:56;;;;;;;10.80;1.70;;;;;;;19.10;87.06;100513.58;109940;1273;22437;-62
2023/08/23 01:28:27;;;;;;;10.90;1.80;;;;;;;19.09;86.85;100517.66;109982;1274;22147;-61
2023/08/23 01:31:02;;;;;;;8.50;1.90;;;;;;;19.02;86.71;100520.30;110008;1272;22207;-61
2023/08/23 01:33:38;;;;;;;7.50;1.80;;;;;;;18.95;86.81;100520.80;110018;1279;22250;-61
2023/08/23 01:36:18;;;;;;;10.30;1.80;;;;;;;18.86;87.08;100522.59;109995;1276;22210;-61
2023/08/23 01:38:50;;;;;;;10.00;1.90;;;;;;;18.79;87.18;100524.92;109982;1279;22327;-62
2023/08/23 01:41:21;;;;;;;9.10;1.90;;;;;;;18.73;87.21;100527.45;110007;1279;22225;-62
2023/08/23 01:43:54;;;;;;;8.20;1.70;;;;;;;18.69;87.39;100529.65;110005;1280;22171;-61
2023/08/23 01:46:25;;;;;;;10.00;2.70;;;;;;;18.61;87.52;100519.70;110006;1280;22308;-61
2023/08/23 01:48:55;;;;;;;9.00;1.90;;;;;;;18.56;87.75;100517.79;110009;1273;22483;-61
2023/08/23 01:51:26;;;;;;;11.00;1.70;;;;;;;18.55;88.04;100514.31;110019;1279;22540;-61
2023/08/23 01:53:57;;;;;;;6.00;1.90;;;;;;;18.54;88.16;100512.66;109978;1276;22126;-61
2023/08/23 01:56:28;;;;;;;7.00;2.00;;;;;;;18.54;88.20;100514.15;110016;1280;22368;-61
2023/08/23 01:58:59;;;;;;;8.50;2.10;;;;;;;18.51;88.29;100513.36;110016;1272;22171;-61
2023/08/23 02:01:31;;;;;;;8.90;1.90;;;;;;;18.50;88.52;100507.92;109986;1280;23343;-62
2023/08/23 02:04:02;;;;;;;10.80;2.30;;;;;;;18.48;88.70;100506.19;110017;1277;22175;-61
2023/08/23 02:06:33;;;;;;;7.00;2.20;;;;;;;18.49;88.94;100504.90;110007;1273;22156;-62
2023/08/23 02:09:04;;;;;;;12.20;2.30;;;;;;;18.52;89.00;100506.36;110024;1279;22336;-61
2023/08/23 02:11:36;;;;;;;12.40;2.80;;;;;;;18.53;89.00;100510.82;109997;1276;23366;-61
2023/08/23 02:14:07;;;;;;;7.20;1.80;;;;;;;18.51;89.02;100511.72;110032;1279;22373;-61
2023/08/23 02:16:38;;;;;;;12.80;2.10;;;;;;;18.44;89.18;100520.14;109997;1280;22885;-60
2023/08/23 02:19:09;;;;;;;10.80;2.70;;;;;;;18.41;89.13;100517.70;109983;1279;22188;-61
2023/08/23 02:21:40;;;;;;;11.60;2.30;;;;;;;18.37;89.22;100519.98;109993;1271;22196;-61
2023/08/23 02:24:11;;;;;;;13.90;2.80;;;;;;;18.33;89.39;100523.52;110008;1274;22250;-61
2023/08/23 02:26:41;;;;;;;8.90;2.80;;;;;;;18.28;89.64;100531.52;109997;1280;22140;-63
2023/08/23 02:29:12;;;;;;;15.40;2.10;;;;;;;18.21;89.79;100527.88;109988;1279;22188;-60
2023/08/23 02:31:43;;;;;;;9.20;2.00;;;;;;;18.16;89.94;100525.48;109991;1280;23324;-61
2023/08/23 02:34:14;;;;;;;13.10;2.60;;;;;;;18.12;90.08;100523.92;110022;1274;22177;-61
2023/08/23 02:36:45;;;;;;;8.20;2.00;;;;;;;18.10;90.29;100521.33;109986;1279;23232;-61
2023/08/23 02:39:16;;;;;;;9.00;2.60;;;;;;;18.08;90.34;100518.16;110006;1273;22178;-61
2023/08/23 02:41:47;;;;;;;9.20;2.20;;;;;;;18.06;90.58;100517.61;110010;1276;22141;-61
2023/08/23 02:44:18;;;;;;;9.20;2.60;;;;;;;18.02;90.78;100522.20;109987;1279;22158;-61
2023/08/23 02:46:49;;;;;;;12.50;2.10;;;;;;;17.97;91.00;100521.30;109988;1280;22183;-61
2023/08/23 02:49:20;;;;;;;10.40;2.00;;;;;;;17.93;91.15;100519.23;110016;1279;22274;-60
2023/08/23 02:51:51;;;;;;;11.70;2.50;;;;;;;17.86;91.26;100519.69;109983;1280;23481;-61
2023/08/23 02:54:21;;;;;;;16.10;2.90;;;;;;;17.80;91.38;100525.16;109999;1279;22240;-61
2023/08/23 02:56:52;;;;;;;10.10;2.60;;;;;;;17.75;91.51;100523.39;109999;1271;22179;-61
2023/08/23 02:59:23;;;;;;;12.90;2.50;;;;;;;17.71;91.57;100531.77;109962;1279;22334;-65
2023/08/23 03:01:54;;;;;;;15.90;2.60;;;;;;;17.65;91.67;100528.52;109979;1273;22201;-61
2023/08/23 03:04:25;;;;;;;11.90;2.70;;;;;;;17.63;91.69;100532.70;110018;1279;22248;-61
2023/08/23 03:06:56;;;;;;;10.90;2.60;;;;;;;17.62;91.84;100527.98;109992;1280;22153;-61
2023/08/23 03:09:27;;;;;;;9.30;2.20;;;;;;;17.63;91.82;100523.41;109984;1279;22344;-61
2023/08/23 03:11:58;;;;;;;10.00;2.10;;;;;;;17.65;91.87;100527.70;109999;1279;22138;-60
2023/08/23 03:14:29;;;;;;;14.30;3.20;;;;;;;17.66;91.88;100534.27;109985;1273;23070;-61
2023/08/23 03:17:00;;;;;;;13.20;2.50;;;;;;;17.66;91.82;100532.89;109983;1279;22149;-61
2023/08/23 03:19:32;;;;;;;9.60;2.20;;;;;;;17.66;91.80;100530.89;109996;1279;22324;-61
2023/08/23 03:22:03;;;;;;;14.80;3.70;;;;;;;17.66;91.80;100534.80;109983;1280;22172;-61
2023/08/23 03:24:34;;;;;;;18.00;5.70;;;;;;;17.63;91.78;100532.34;109985;1280;22479;-61
2023/08/23 03:27:05;;;;;;;13.30;3.90;;;;;;;17.62;91.84;100535.69;110004;1279;22409;-61
2023/08/23 03:29:36;;;;;;;10.10;3.10;;;;;;;17.61;91.97;100532.05;109967;1279;22156;-61
2023/08/23 03:32:07;;;;;;;10.10;2.50;;;;;;;17.57;91.95;100530.77;110023;1279;22178;-60
2023/08/23 03:34:39;;;;;;;8.80;2.20;;;;;;;17.53;92.11;100537.16;109990;1279;22921;-61
2023/08/23 03:37:09;;;;;;;8.70;2.50;;;;;;;17.49;92.20;100539.27;109986;1273;22214;-61
2023/08/23 03:39:40;;;;;;;8.70;2.20;;;;;;;17.47;92.30;100540.18;109958;1279;22202;-61
2023/08/23 03:42:11;;;;;;;14.10;2.90;;;;;;;17.47;92.24;100543.58;109990;1279;23381;-61
2023/08/23 03:44:42;;;;;;;10.60;2.70;;;;;;;17.45;92.28;100542.71;109990;1280;22199;-60
2023/08/23 03:47:13;;;;;;;11.00;3.10;;;;;;;17.43;92.50;100538.98;109985;1279;22343;-60
2023/08/23 03:49:44;;;;;;;14.40;2.60;;;;;;;17.39;92.71;100540.17;109974;1280;22292;-61
2023/08/23 03:52:14;;;;;;;12.90;2.60;;;;;;;17.36;92.72;100536.63;109979;1280;22175;-61
2023/08/23 03:54:45;;;;;;;11.80;2.50;;;;;;;17.37;92.75;100536.59;109964;1280;22249;-60
2023/08/23 03:57:16;;;;;;;9.60;2.20;;;;;;;17.38;92.74;100541.56;109984;1279;22172;-61
2023/08/23 03:59:47;;;;;;;12.00;2.40;;;;;;;17.36;92.71;100545.05;110008;1279;22877;-60
2023/08/23 04:02:18;;;;;;;16.00;4.10;;;;;;;17.34;92.74;100551.69;110015;1279;22882;-61
2023/08/23 04:04:49;;;;;;;13.00;2.80;;;;;;;17.31;92.81;100552.10;110005;1280;22171;-61
2023/08/23 04:07:20;;;;;;;12.50;2.40;;;;;;;17.30;92.90;100551.23;109992;1273;23097;-62
2023/08/23 04:09:51;;;;;;;14.10;2.90;;;;;;;17.26;92.84;100554.84;109986;1272;22151;-61
2023/08/23 04:12:22;;;;;;;11.90;2.40;;;;;;;17.24;92.94;100554.73;109993;1273;22145;-61
2023/08/23 04:14:53;;;;;;;11.80;2.70;;;;;;;17.22;93.08;100559.06;109982;1280;22330;-61
2023/08/23 04:17:25;;;;;;;12.20;2.50;;;;;;;17.20;93.19;100560.45;109963;1272;22443;-60
2023/08/23 04:19:56;;;;;;;10.50;3.30;;;;;;;17.19;93.35;100562.30;109948;1276;22417;-62
2023/08/23 04:22:26;;;;;;;10.90;2.60;;;;;;;17.16;93.57;100557.43;109969;1272;22414;-61
2023/08/23 04:24:57;;;;;;;10.90;2.60;;;;;;;17.12;93.70;100556.94;109945;1273;22175;-61
2023/08/23 04:27:28;;;;;;;11.60;3.30;;;;;;;17.08;93.79;100556.44;109958;1273;23167;-61
2023/08/23 04:29:59;;;;;;;14.30;2.70;;;;;;;17.08;94.03;100560.27;109974;1280;22324;-62
2023/08/23 04:32:30;;;;;;;12.70;3.00;;;;;;;17.08;94.09;100563.66;109931;1271;22183;-61
2023/08/23 04:35:01;;;;;;;11.80;2.50;;;;;;;17.08;94.24;100565.60;110005;1279;22175;-62
2023/08/23 04:37:31;;;;;;;9.50;2.80;;;;;;;17.09;94.37;100562.38;110009;1271;23037;-62
2023/08/23 04:40:02;;;;;;;11.20;3.00;;;;;;;17.09;94.41;100559.09;109950;1272;22303;-62
2023/08/23 04:42:34;;;;;;;12.10;3.00;;;;;;;17.08;94.44;100559.05;109977;1280;22332;-62
2023/08/23 04:45:06;;;;;;;9.20;2.80;;;;;;;17.09;94.60;100563.23;109982;1271;22172;-62
2023/08/23 04:47:37;;;;;;;12.20;3.20;;;;;;;17.11;94.66;100563.23;109995;1276;23191;-62
2023/08/23 04:50:09;;;;;;;12.30;2.90;;;;;;;17.13;94.71;100569.14;109988;1274;22188;-62
2023/08/23 04:52:40;;;;;;;11.60;3.30;;;;;;;17.16;94.84;100578.27;109979;1280;22161;-59
2023/08/23 04:55:11;;;;;;;13.10;3.50;;;;;;;17.17;94.91;100576.01;109981;1272;22199;-60
2023/08/23 04:57:43;;;;;;;10.90;2.60;;;;;;;17.20;94.99;100581.79;110018;1272;22307;-58
2023/08/23 05:00:15;;;;;;;11.60;3.00;;;;;;;17.24;95.29;100583.21;109944;1280;22154;-61
2023/08/23 05:02:47;;;;;;;9.90;2.40;;;;;;;17.29;95.34;100580.89;110017;1279;22326;-59
2023/08/23 05:05:18;;;;;;;14.40;3.30;;;;;;;17.35;95.55;100573.23;110028;1279;22195;-60
2023/08/23 05:07:49;;;;;;;13.70;3.70;;;;;;;17.40;95.43;100574.03;110001;1279;22305;-59
2023/08/23 05:10:20;;;;;;;12.60;3.40;;;;;;;17.45;95.30;100578.84;109981;1274;22151;-59
2023/08/23 05:12:51;;;;;;;11.30;3.60;;;;;;;17.49;95.37;100581.36;110000;1280;22220;-60
2023/08/23 05:15:22;;;;;;;13.10;3.70;;;;;;;17.52;95.34;100584.19;109995;1276;22238;-60
2023/08/23 05:17:53;;;;;;;16.50;4.40;;;;;;;17.56;95.32;100587.30;109981;1274;22627;-60
2023/08/23 05:20:24;;;;;;;12.80;3.60;;;;;;;17.60;95.35;100585.48;109966;1279;23101;-60
2023/08/23 05:22:55;;;;;;;11.10;3.40;;;;;;;17.63;95.21;100585.00;109992;1279;22148;-58
2023/08/23 05:25:26;;;;;;;15.40;3.90;;;;;;;17.67;95.15;100591.05;109993;1280;22177;-60
2023/08/23 05:27:57;;;;;;;17.90;4.30;;;;;;;17.68;95.04;100596.29;109986;1280;22308;-60
2023/08/23 05:30:28;;;;;;;16.20;3.70;;;;;;;17.71;95.10;100597.23;109986;1279;22342;-60
2023/08/23 05:32:59;;;;;;;13.70;3.90;;;;;;;17.75;94.91;100598.45;110015;1280;22173;-60
2023/08/23 05:35:29;;;;;;;12.00;4.20;;;;;;;17.79;94.71;100606.04;110002;1273;22334;-60
2023/08/23 05:38:00;;;;;;;13.50;3.40;;;;;;;17.83;94.65;100607.71;109990;1277;22326;-60
2023/08/23 05:40:31;;;;;;;11.80;3.20;;;;;;;17.87;94.42;100607.19;109986;1279;22234;-59
2023/08/23 05:43:02;;;;;;;13.80;3.60;;;;;;;17.92;94.34;100609.11;110021;1279;22161;-60
2023/08/23 05:45:33;;;;;;;14.40;4.80;;;;;;;17.97;94.34;100611.14;110030;1279;22319;-59
2023/08/23 05:48:04;;;;;;;12.50;3.10;;;;;;;18.03;94.15;100609.11;109999;1280;22244;-59
2023/08/23 05:50:35;;;;;;;9.90;2.70;;;;;;;18.08;93.62;100611.55;109996;1273;22215;-59
2023/08/23 05:53:09;;;;;;;16.10;3.90;;;;;;;18.13;93.93;100611.20;110013;1273;22224;-59
2023/08/23 05:55:40;;;;;;;18.50;3.70;;;;;;;18.21;93.68;100609.56;109998;1280;22164;-60
2023/08/23 05:58:11;;;;;;;15.50;3.40;;;;;;;18.24;92.83;100611.13;110003;1280;22145;-60
2023/08/23 06:00:42;;;;;;;13.80;3.20;;;;;;;18.26;92.55;100611.33;109991;1271;22163;-59
2023/08/23 06:03:15;;;;;;;13.60;3.40;;;;;;;18.28;92.35;100613.48;110010;1280;22909;-60
2023/08/23 06:05:47;;;;;;;16.30;4.20;;;;;;;18.30;92.38;100615.31;109976;1270;22177;-60
2023/08/23 06:08:17;;;;;;;9.20;2.30;;;;;;;18.35;92.71;100611.83;110003;1279;22182;-60
2023/08/23 06:10:48;;;;;;;14.60;3.80;;;;;;;18.43;92.59;100613.65;109973;1273;22246;-60
2023/08/23 06:13:19;;;;;;;12.10;3.40;;;;;;;18.47;92.19;100613.27;109988;1279;22816;-61
2023/08/23 06:15:50;;;;;;;13.50;3.50;;;;;;;18.51;92.07;100612.79;109986;1279;22218;-59
2023/08/23 06:18:21;;;;;;;15.50;2.90;;;;;;;18.54;91.49;100611.47;110000;1280;22205;-59
2023/08/23 06:20:52;;;;;;;14.90;2.70;;;;;;;18.55;91.11;100615.99;110008;1279;22889;-58
2023/08/23 06:23:23;;;;;;;10.90;2.60;;;;;;;18.58;91.20;100612.41;109994;1280;23269;-60
2023/08/23 06:25:59;;;;;;;14.80;3.00;;;;;;;18.64;91.14;100613.15;109971;1272;23341;-60
2023/08/23 06:28:30;;;;;;;13.90;3.20;;;;;;;18.68;90.94;100615.48;109975;1279;22187;-60
2023/08/23 06:31:01;;;;;;;11.30;2.70;;;;;;;18.71;90.50;100617.10;109978;1279;22234;-58
2023/08/23 06:33:32;;;;;;;17.70;2.90;;;;;;;18.75;90.46;100617.33;109996;1273;22435;-59
2023/08/23 06:36:05;;;;;;;14.60;2.60;;;;;;;18.79;89.98;100618.11;110018;1279;22166;-60
2023/08/23 06:38:36;;;;;;;14.60;3.00;;;;;;;18.86;90.02;100621.04;109975;1279;22266;-59
2023/08/23 06:41:07;;;;;;;13.10;2.90;;;;;;;18.93;89.98;100620.45;109987;1276;23094;-59
2023/08/23 06:43:38;;;;;;;15.70;3.30;;;;;;;18.99;89.64;100623.75;109986;1279;22403;-59
2023/08/23 06:46:09;;;;;;;14.40;3.30;;;;;;;19.04;89.72;100624.77;110001;1279;22215;-59
2023/08/23 06:48:39;;;;;;;12.00;3.00;;;;;;;19.11;89.53;100631.81;109980;1280;22852;-60
2023/08/23 06:51:11;;;;;;;16.20;2.40;;;;;;;19.18;89.64;100630.66;109985;1279;22872;-60
2023/08/23 06:53:42;;;;;;;15.10;2.70;;;;;;;19.27;89.30;100625.79;109989;1280;22343;-60
2023/08/23 06:56:13;;;;;;;12.20;2.40;;;;;;;19.33;88.92;100625.27;110005;1279;22203;-60
2023/08/23 06:58:44;;;;;;;13.00;2.60;;;;;;;19.39;88.17;100629.45;109987;1279;22381;-59
2023/08/23 07:01:16;;;;;;;14.50;2.40;;;;;;;19.43;87.38;100625.23;109992;1276;22916;-60
2023/08/23 07:03:47;;;;;;;11.40;2.60;;;;;;;19.47;87.42;100635.13;110016;1276;22297;-60
2023/08/23 07:06:19;;;;;;;9.30;2.10;;;;;;;19.51;86.82;100634.46;110003;1276;22160;-61
2023/08/23 07:08:50;;;;;;;11.10;2.40;;;;;;;19.55;86.86;100634.99;110007;1279;22346;-60
2023/08/23 07:11:21;;;;;;;10.20;2.10;;;;;;;19.60;86.62;100634.42;110043;1279;22255;-61
2023/08/23 07:13:51;;;;;;;8.50;2.10;;;;;;;19.63;86.08;100628.92;110006;1280;22210;-60
2023/08/23 07:16:22;;;;;;;10.40;2.30;;;;;;;19.66;86.13;100624.45;109987;1279;22177;-58
2023/08/23 07:18:53;;;;;;;11.90;1.80;;;;;;;19.71;86.25;100622.65;109981;1276;22217;-58
2023/08/23 07:21:24;;;;;;;7.30;1.60;;;;;;;19.79;86.17;100628.02;109994;1280;22164;-60
2023/08/23 07:23:55;;;;;;;11.30;2.30;;;;;;;19.85;85.63;100634.77;109999;1279;22116;-60
2023/08/23 07:26:26;;;;;;;7.30;1.60;;;;;;;19.91;85.07;100631.20;109922;1273;23823;-60
2023/08/23 07:28:57;;;;;;;9.60;2.40;;;;;;;19.97;84.81;100625.77;109982;1273;22252;-60
2023/08/23 07:31:28;;;;;;;12.60;1.80;;;;;;;20.02;84.61;100618.95;109987;1279;22181;-60
2023/08/23 07:33:59;;;;;;;9.80;1.80;;;;;;;20.07;84.58;100618.10;110024;1273;22185;-60
2023/08/23 07:36:29;;;;;;;9.00;1.80;;;;;;;20.12;84.45;100618.55;109937;1272;22321;-60
2023/08/23 07:39:00;;;;;;;10.60;1.80;;;;;;;20.19;83.86;100621.72;109979;1271;22224;-60
2023/08/23 07:41:31;;;;;;;7.90;1.40;;;;;;;20.24;83.10;100627.44;109988;1280;22223;-59
2023/08/23 07:44:03;;;;;;;10.50;1.30;;;;;;;20.27;82.52;100629.35;110000;1277;22257;-59
2023/08/23 07:46:34;;;;;;;12.50;1.50;;;;;;;20.31;82.44;100627.53;109984;1268;22152;-60
2023/08/23 07:49:05;;;;;;;9.00;1.20;;;;;;;20.37;81.45;100631.31;109986;1279;22176;-60
2023/08/23 07:51:36;;;;;;;9.40;0.90;;;;;;;20.43;80.10;100634.48;109975;1279;22206;-60
2023/08/23 07:54:07;;;;;;;9.10;1.30;;;;;;;20.49;80.22;100637.83;110007;1279;22184;-60
2023/08/23 07:56:38;;;;;;;5.60;1.10;;;;;;;20.57;80.79;100636.53;110035;1271;22306;-59
2023/08/23 07:59:09;;;;;;;5.50;1.00;;;;;;;20.62;79.62;100636.98;109991;1277;23028;-61
2023/08/23 08:01:40;;;;;;;13.90;1.20;;;;;;;20.67;79.33;100633.58;109975;1276;23277;-59
2023/08/23 08:04:10;;;;;;;6.90;0.80;;;;;;;20.72;79.21;100631.55;109999;1274;22199;-61
2023/08/23 08:06:41;;;;;;;6.10;0.80;;;;;;;20.77;77.76;100635.70;109983;1271;22204;-60
2023/08/23 08:09:12;;;;;;;10.60;1.30;;;;;;;20.81;76.92;100635.05;109999;1274;22204;-60
2023/08/23 08:11:43;;;;;;;7.70;1.20;;;;;;;20.85;76.13;100637.88;110000;1271;22118;-62
2023/08/23 08:14:14;;;;;;;7.30;0.90;;;;;;;20.87;75.13;100637.70;109995;1274;23576;-61
2023/08/23 08:16:45;;;;;;;7.10;0.90;;;;;;;20.89;74.35;100637.08;109992;1271;22460;-59
2023/08/23 08:19:16;;;;;;;4.40;0.70;;;;;;;20.94;74.33;100636.80;110028;1279;22122;-59
2023/08/23 08:21:46;;;;;;;8.10;0.70;;;;;;;21.00;73.11;100639.49;110009;1279;22821;-60
2023/08/23 08:24:17;;;;;;;6.70;1.10;;;;;;;21.02;72.81;100632.23;109990;1279;22175;-60
2023/08/23 08:26:48;;;;;;;4.20;0.80;;;;;;;21.06;72.83;100636.68;110007;1273;22151;-60
2023/08/23 08:29:20;;;;;;;5.80;1.40;;;;;;;21.09;72.70;100639.92;109982;1273;22337;-61
2023/08/23 08:31:51;;;;;;;9.70;1.10;;;;;;;21.11;72.37;100638.81;110001;1280;22172;-61
2023/08/23 08:34:22;;;;;;;5.80;1.60;;;;;;;21.13;72.22;100641.26;110015;1271;22154;-61
2023/08/23 08:36:52;;;;;;;9.50;1.40;;;;;;;21.16;72.12;100642.23;110039;1271;22175;-61
2023/08/23 08:39:23;;;;;;;5.50;1.10;;;;;;;21.21;71.34;100641.62;110012;1279;22222;-61
2023/08/23 08:41:55;;;;;;;8.10;1.30;;;;;;;21.25;70.51;100640.73;109997;1279;22346;-61
2023/08/23 08:44:27;;;;;;;6.00;1.10;;;;;;;21.30;70.42;100638.77;110025;1271;23041;-59
2023/08/23 08:46:58;;;;;;;4.20;0.70;;;;;;;21.35;69.79;100635.48;110009;1271;23105;-59
2023/08/23 08:49:29;;;;;;;6.80;0.90;;;;;;;21.42;69.43;100634.06;110004;1271;22366;-59
2023/08/23 08:52:03;;;;;;;7.50;0.90;;;;;;;21.48;69.16;100644.52;107877;1271;22576;-58
2023/08/23 08:54:35;;;;;;;5.10;0.70;;;;;;;21.52;69.25;100640.84;109980;1272;22236;-61
2023/08/23 08:57:09;;;;;;;9.80;1.00;;;;;;;21.57;68.45;100641.15;109977;1274;22334;-60
2023/08/23 08:59:42;;;;;;;3.60;0.70;;;;;;;21.63;68.05;100637.94;110016;1279;23443;-60
2023/08/23 09:02:16;;;;;;;5.00;0.80;;;;;;;21.68;67.14;100638.34;109952;1274;23121;-58
2023/08/23 09:04:47;;;;;;;2.80;0.60;;;;;;;21.71;65.00;100640.30;109931;1271;22919;-61
2023/08/23 09:07:19;;;;;;;2.40;0.60;;;;;;;21.74;64.31;100639.77;109912;1273;22421;-62
2023/08/23 09:09:52;;;;;;;5.30;0.70;;;;;;;21.79;64.90;100640.81;109944;1273;22286;-61
2023/08/23 09:12:23;;;;;;;9.60;0.80;;;;;;;21.85;65.69;100633.95;109983;1274;22303;-61
2023/08/23 09:14:54;;;;;;;7.00;1.50;;;;;;;21.91;64.97;100638.84;110004;1279;22273;-61
2023/08/23 09:17:26;;;;;;;3.90;0.70;;;;;;;21.96;64.36;100640.04;110014;1271;22389;-60
2023/08/23 09:19:57;;;;;;;5.00;0.90;;;;;;;21.98;64.03;100639.16;109982;1263;22574;-62
2023/08/23 09:22:44;;;;;;;6.30;0.70;;;;;;;21.98;62.96;100634.39;109952;1273;22306;-60
2023/08/23 09:25:16;;;;;;;4.70;0.60;;;;;;;22.01;62.90;100636.24;109503;1273;22528;-61
2023/08/23 09:27:47;;;;;;;6.80;0.90;;;;;;;22.04;62.32;100637.38;109971;1272;22318;-61
2023/08/23 09:30:18;;;;;;;3.90;0.60;;;;;;;22.06;62.27;100636.30;110013;1272;22163;-61
2023/08/23 09:32:49;;;;;;;4.40;0.70;;;;;;;22.12;61.99;100643.48;110022;1271;22210;-59
2023/08/23 09:35:20;;;;;;;4.30;0.70;;;;;;;22.17;61.46;100646.98;110029;1279;22224;-60
2023/08/23 09:37:51;;;;;;;3.10;0.40;;;;;;;22.21;61.00;100650.70;109843;1270;22330;-59
2023/08/23 09:40:24;;;;;;;7.10;0.70;;;;;;;22.26;60.54;100649.30;109959;1274;22161;-59
2023/08/23 09:42:56;;;;;;;5.30;0.50;;;;;;;22.31;59.49;100651.05;109991;1274;22150;-59
2023/08/23 09:45:27;;;;;;;3.10;0.70;;;;;;;22.34;59.65;100648.29;110005;1279;22129;-59
2023/08/23 09:48:02;;;;;;;3.50;0.70;;;;;;;22.37;58.91;100646.41;109969;1280;22205;-59
2023/08/23 09:50:33;;;;;;;3.30;0.60;;;;;;;22.38;58.45;100643.45;109984;1274;22137;-60
2023/08/23 09:53:07;;;;;;;5.20;0.70;;;;;;;22.42;58.24;100645.41;110053;1264;22247;-59
2023/08/23 09:55:39;;;;;;;6.30;0.70;;;;;;;22.47;58.67;100645.60;110018;1275;22211;-59
2023/08/23 09:58:10;;;;;;;4.20;0.90;;;;;;;22.53;58.17;100641.59;110010;1273;23355;-59
2023/08/23 10:00:41;;;;;;;4.70;0.60;;;;;;;22.58;57.97;100642.31;109994;1271;23569;-59
2023/08/23 10:03:13;;;;;;;5.10;0.60;;;;;;;22.65;57.58;100644.13;110015;1274;22860;-59
2023/08/23 10:05:45;;;;;;;5.40;1.00;;;;;;;22.69;57.85;100644.40;110023;1273;22899;-59
2023/08/23 10:08:17;;;;;;;3.60;0.50;;;;;;;22.74;57.02;100645.47;110009;1274;22334;-58
2023/08/23 10:10:50;;;;;;;2.60;0.50;;;;;;;22.77;57.15;100649.00;109991;1280;22297;-59
2023/08/23 10:13:23;;;;;;;4.70;0.60;;;;;;;22.82;56.45;100643.31;110020;1272;23380;-59
2023/08/23 10:15:56;;;;;;;3.10;0.60;;;;;;;22.83;56.28;100644.17;110010;1280;22153;-59
2023/08/23 10:18:30;;;;;;;5.30;0.70;;;;;;;22.86;56.59;100641.39;109952;1274;22349;-59
2023/08/23 10:21:02;;;;;;;5.00;0.70;;;;;;;22.89;55.68;100636.66;110002;1271;22168;-59
2023/08/23 10:23:36;;;;;;;4.60;0.50;;;;;;;22.93;56.11;100635.41;110018;1279;23065;-59
2023/08/23 10:26:16;;;;;;;6.40;0.80;;;;;;;22.99;55.00;100636.48;110028;1272;22342;-60
2023/08/23 10:28:53;;;;;;;7.40;1.20;;;;;;;23.01;55.39;100634.53;109980;1272;22397;-60
2023/08/23 10:31:29;;;;;;;3.70;0.80;;;;;;;23.08;55.15;100635.09;109991;1274;23562;-59
2023/08/23 10:34:01;;;;;;;5.10;0.60;;;;;;;23.12;54.32;100632.84;110018;1277;22190;-59
2023/08/23 10:36:33;;;;;;;6.80;1.30;;;;;;;23.16;55.32;100631.20;110012;1274;22349;-60
2023/08/23 10:39:06;;;;;;;14.40;1.10;;;;;;;23.20;54.95;100628.13;110008;1274;22250;-59
2023/08/23 10:41:37;;;;;;;2.80;0.70;;;;;;;23.20;54.12;100624.29;109967;1280;22212;-59
2023/08/23 10:44:17;;;;;;;4.30;1.00;;;;;;;23.19;54.43;100622.46;110018;1280;22191;-59
2023/08/23 10:46:50;;;;;;;6.00;0.80;;;;;;;23.19;54.40;100619.91;109967;1279;22303;-59
2023/08/23 10:49:23;;;;;;;6.20;0.70;;;;;;;23.23;54.47;100621.23;110007;1273;22207;-59
2023/08/23 10:51:55;;;;;;;6.60;0.80;;;;;;;23.25;53.70;100621.16;109998;1273;22322;-59
2023/08/23 10:54:28;;;;;;;3.10;0.80;;;;;;;23.26;54.32;100621.14;110021;1273;22326;-59
2023/08/23 10:56:59;;;;;;;5.60;0.80;;;;;;;23.33;54.82;100617.75;109996;1279;22184;-59
2023/08/23 10:59:30;;;;;;;4.80;0.70;;;;;;;23.39;54.02;100613.36;110021;1279;22353;-60
2023/08/23 11:02:02;;;;;;;4.80;0.70;;;;;;;23.44;53.87;100609.17;109972;1279;22645;-59
2023/08/23 11:04:35;;;;;;;5.20;0.70;;;;;;;23.50;54.25;100607.57;109994;1279;22162;-59
2023/08/23 11:07:09;;;;;;;4.50;0.70;;;;;;;23.56;53.78;100608.36;109998;1274;24630;-59
2023/08/23 11:09:42;;;;;;;4.10;0.70;;;;;;;23.64;53.96;100606.17;110029;1274;22216;-59
2023/08/23 11:12:15;;;;;;;3.90;1.00;;;;;;;23.73;53.71;100597.94;110074;1279;22150;-59
2023/08/23 11:14:47;;;;;;;4.30;0.80;;;;;;;23.78;53.12;100597.20;109949;1276;22148;-59
2023/08/23 11:17:22;;;;;;;6.20;0.90;;;;;;;23.82;53.27;100596.80;109991;1277;22338;-59
2023/08/23 11:19:54;;;;;;;3.30;0.50;;;;;;;23.87;52.64;100596.74;109990;1270;22202;-60
2023/08/23 11:22:29;;;;;;;4.80;0.70;;;;;;;23.90;51.96;100591.05;109759;1274;220660;-60
2023/08/23 11:25:02;;;;;;;3.70;0.60;;;;;;;23.89;51.42;100594.39;109986;1276;22198;-59
2023/08/23 11:27:34;;;;;;;6.60;0.80;;;;;;;23.92;51.51;100593.42;109978;1274;23647;-60
2023/08/23 11:30:08;;;;;;;2.80;0.50;;;;;;;23.96;51.30;100593.81;109957;1272;22339;-59
2023/08/23 11:32:39;;;;;;;6.90;0.70;;;;;;;24.02;51.87;100591.67;109989;1277;22341;-60
2023/08/23 11:35:12;;;;;;;2.80;0.50;;;;;;;24.05;50.97;100590.50;109998;1280;22216;-59